sensor_id;sensor_type;location;lat;lon;timestamp;pressure;altitude;pressure_sealevel;temperature;humidity
39789;BME280;25478;42.626;23.320;2022-10-19T06:18:08;93534.72;;;7.70;62.89
39789;BME280;25478;42.626;23.320;2022-10-19T06:20:35;93534.94;;;7.81;62.46
39789;BME280;25478;42.626;23.320;2022-10-19T06:23:01;93535.84;;;7.88;62.62
39789;BME280;25478;42.626;23.320;2022-10-19T06:25:28;93540.09;;;7.97;62.22
39789;BME280;25478;42.626;23.320;2022-10-19T06:27:54;93523.97;;;7.95;62.36
39789;BME280;25478;42.626;23.320;2022-10-19T06:30:19;93526.72;;;8.02;62.53
39789;BME280;25478;42.626;23.320;2022-10-19T06:32:45;93528.25;;;8.03;62.18
39789;BME280;25478;42.626;23.320;2022-10-19T06:35:10;93551.91;;;8.26;62.86
39789;BME280;25478;42.626;23.320;2022-10-19T06:37:36;93530.09;;;8.22;62.57
39789;BME280;25478;42.626;23.320;2022-10-19T06:40:01;93546.53;;;8.38;61.66
39789;BME280;25478;42.626;23.320;2022-10-19T06:42:27;93526.69;;;8.40;61.70
39789;BME280;25478;42.626;23.320;2022-10-19T06:44:52;93548.13;;;8.65;60.54
39789;BME280;25478;42.626;23.320;2022-10-19T06:47:18;93546.06;;;8.74;60.72
39789;BME280;25478;42.626;23.320;2022-10-19T06:49:43;93522.75;;;8.73;60.59
39789;BME280;25478;42.626;23.320;2022-10-19T06:52:09;93523.09;;;8.94;59.78
39789;BME280;25478;42.626;23.320;2022-10-19T06:54:34;93514.47;;;8.94;59.21
39789;BME280;25478;42.626;23.320;2022-10-19T06:57:00;93518.13;;;9.12;58.91
39789;BME280;25478;42.626;23.320;2022-10-19T08:31:51;93471.03;;;11.85;50.52
39789;BME280;25478;42.626;23.320;2022-10-19T08:34:17;93472.63;;;12.04;50.47
39789;BME280;25478;42.626;23.320;2022-10-19T08:36:43;93463.59;;;12.08;49.79
39789;BME280;25478;42.626;23.320;2022-10-19T08:39:09;93472.69;;;12.29;49.80
39789;BME280;25478;42.626;23.320;2022-10-19T08:47:08;93476.13;;;12.76;49.64
39789;BME280;25478;42.626;23.320;2022-10-19T08:49:27;93473.88;;;12.85;49.34
39789;BME280;25478;42.626;23.320;2022-10-19T08:51:56;93462.56;;;12.95;49.11
39789;BME280;25478;42.626;23.320;2022-10-19T08:54:24;93464.78;;;13.18;48.54
39789;BME280;25478;42.626;23.320;2022-10-19T08:57:22;93458.00;;;13.28;47.75
39789;BME280;25478;42.626;23.320;2022-10-19T09:00:05;93459.81;;;13.59;47.13
39789;BME280;25478;42.626;23.320;2022-10-19T09:07:49;93458.56;;;13.92;45.87
39789;BME280;25478;42.626;23.320;2022-10-19T09:10:25;93448.28;;;14.08;45.85
39789;BME280;25478;42.626;23.320;2022-10-19T09:12:58;93444.44;;;14.17;45.25
39789;BME280;25478;42.626;23.320;2022-10-19T09:15:28;93433.06;;;14.20;44.95
39789;BME280;25478;42.626;23.320;2022-10-19T09:17:59;93433.75;;;14.34;45.16
39789;BME280;25478;42.626;23.320;2022-10-19T09:20:31;93447.97;;;14.62;44.79
39789;BME280;25478;42.626;23.320;2022-10-19T09:25:40;93447.41;;;14.85;43.60
39789;BME280;25478;42.626;23.320;2022-10-19T09:30:40;93452.19;;;15.04;43.47
39789;BME280;25478;42.626;23.320;2022-10-19T09:33:13;93430.63;;;15.02;43.24
39789;BME280;25478;42.626;23.320;2022-10-19T09:35:43;93446.78;;;15.15;43.46
39789;BME280;25478;42.626;23.320;2022-10-19T09:38:13;93447.50;;;15.23;42.20
39789;BME280;25478;42.626;23.320;2022-10-19T09:40:41;93463.72;;;15.28;42.78
39789;BME280;25478;42.626;23.320;2022-10-19T09:43:08;93452.31;;;15.31;42.49
39789;BME280;25478;42.626;23.320;2022-10-19T09:46:08;93459.44;;;15.38;43.02
39789;BME280;25478;42.626;23.320;2022-10-19T09:48:46;93458.59;;;15.48;42.78
39789;BME280;25478;42.626;23.320;2022-10-19T09:51:15;93447.16;;;15.55;41.09
39789;BME280;25478;42.626;23.320;2022-10-19T09:53:45;93453.19;;;15.59;41.54
39789;BME280;25478;42.626;23.320;2022-10-19T09:56:26;93441.13;;;15.51;41.25
39789;BME280;25478;42.626;23.320;2022-10-19T09:58:57;93439.19;;;15.55;40.84
39789;BME280;25478;42.626;23.320;2022-10-19T10:01:37;93429.44;;;15.44;40.43
39789;BME280;25478;42.626;23.320;2022-10-19T10:04:08;93445.56;;;15.64;40.57
39789;BME280;25478;42.626;23.320;2022-10-19T10:06:35;93437.22;;;15.62;41.41
39789;BME280;25478;42.626;23.320;2022-10-19T10:09:02;93431.78;;;15.76;40.46
39789;BME280;25478;42.626;23.320;2022-10-19T10:11:36;93424.16;;;15.79;40.66
39789;BME280;25478;42.626;23.320;2022-10-19T10:17:14;93440.94;;;16.02;40.25
39789;BME280;25478;42.626;23.320;2022-10-19T10:22:29;93408.53;;;16.15;38.72
39789;BME280;25478;42.626;23.320;2022-10-19T10:24:56;93410.41;;;16.14;37.70
39789;BME280;25478;42.626;23.320;2022-10-19T10:27:36;93390.31;;;16.17;37.08
39789;BME280;25478;42.626;23.320;2022-10-19T10:30:15;93407.38;;;16.43;37.66
39789;BME280;25478;42.626;23.320;2022-10-19T10:32:48;93390.22;;;16.47;37.35
39789;BME280;25478;42.626;23.320;2022-10-19T10:35:19;93413.84;;;16.69;36.55
39789;BME280;25478;42.626;23.320;2022-10-19T10:37:46;93400.09;;;16.74;36.61
39789;BME280;25478;42.626;23.320;2022-10-19T10:40:28;93392.69;;;16.85;36.07
39789;BME280;25478;42.626;23.320;2022-10-19T10:43:01;93393.38;;;16.89;35.53
39789;BME280;25478;42.626;23.320;2022-10-19T10:50:39;93374.13;;;16.81;33.51
39789;BME280;25478;42.626;23.320;2022-10-19T10:53:08;93372.06;;;16.93;33.09
39789;BME280;25478;42.626;23.320;2022-10-19T10:55:55;93365.81;;;17.03;32.66
39789;BME280;25478;42.626;23.320;2022-10-19T11:00:57;93357.06;;;17.02;32.74
39789;BME280;25478;42.626;23.320;2022-10-19T11:03:26;93350.41;;;17.14;33.01
39789;BME280;25478;42.626;23.320;2022-10-19T11:05:56;93354.03;;;17.24;32.97
39789;BME280;25478;42.626;23.320;2022-10-19T11:10:58;93362.97;;;17.53;32.39
39789;BME280;25478;42.626;23.320;2022-10-19T11:13:29;93335.88;;;17.38;32.17
39789;BME280;25478;42.626;23.320;2022-10-19T11:18:47;93350.06;;;17.71;31.60
39789;BME280;25478;42.626;23.320;2022-10-19T11:27:27;93344.59;;;17.79;31.39
39789;BME280;25478;42.626;23.320;2022-10-19T11:30:13;93324.63;;;17.70;31.49
39789;BME280;25478;42.626;23.320;2022-10-19T11:35:47;93331.16;;;17.86;30.00
39789;BME280;25478;42.626;23.320;2022-10-19T11:38:41;93333.81;;;17.86;30.27
39789;BME280;25478;42.626;23.320;2022-10-19T11:44:25;93317.91;;;17.98;30.20
39789;BME280;25478;42.626;23.320;2022-10-19T11:47:30;93320.09;;;18.04;30.61
39789;BME280;25478;42.626;23.320;2022-10-19T12:01:18;93307.22;;;18.35;29.85
39789;BME280;25478;42.626;23.320;2022-10-19T12:06:46;93290.81;;;18.20;29.88
39789;BME280;25478;42.626;23.320;2022-10-19T12:09:38;93302.91;;;18.24;30.28
39789;BME280;25478;42.626;23.320;2022-10-19T12:12:26;93292.56;;;18.26;30.11
39789;BME280;25478;42.626;23.320;2022-10-19T12:17:48;93297.06;;;18.29;29.21
39789;BME280;25478;42.626;23.320;2022-10-19T12:20:31;93302.72;;;18.32;29.54
39789;BME280;25478;42.626;23.320;2022-10-19T12:23:01;93304.19;;;18.33;30.03
39789;BME280;25478;42.626;23.320;2022-10-19T12:25:31;93273.34;;;18.19;29.83
39789;BME280;25478;42.626;23.320;2022-10-19T12:28:01;93280.06;;;18.23;30.03
39789;BME280;25478;42.626;23.320;2022-10-19T12:30:28;93285.66;;;18.29;30.12
39789;BME280;25478;42.626;23.320;2022-10-19T12:33:11;93292.41;;;18.34;30.17
39789;BME280;25478;42.626;23.320;2022-10-19T12:36:00;93295.41;;;18.36;30.11
39789;BME280;25478;42.626;23.320;2022-10-19T12:41:06;93289.31;;;18.35;30.32
39789;BME280;25478;42.626;23.320;2022-10-19T12:43:37;93288.56;;;18.35;30.20
39789;BME280;25478;42.626;23.320;2022-10-19T12:46:25;93284.72;;;18.36;30.13
39789;BME280;25478;42.626;23.320;2022-10-19T12:52:00;93284.47;;;18.30;29.85
39789;BME280;25478;42.626;23.320;2022-10-19T12:54:32;93271.09;;;18.17;30.13
39789;BME280;25478;42.626;23.320;2022-10-19T12:57:00;93282.88;;;18.33;30.66
39789;BME280;25478;42.626;23.320;2022-10-19T12:59:32;93286.72;;;18.32;30.59
39789;BME280;25478;42.626;23.320;2022-10-19T13:01:59;93287.56;;;18.28;30.82
39789;BME280;25478;42.626;23.320;2022-10-19T13:04:33;93268.91;;;18.12;30.72
39789;BME280;25478;42.626;23.320;2022-10-19T13:07:02;93260.34;;;18.05;31.39
39789;BME280;25478;42.626;23.320;2022-10-19T13:09:31;93260.28;;;18.08;31.51
39789;BME280;25478;42.626;23.320;2022-10-19T13:25:39;93275.16;;;18.06;32.54
39789;BME280;25478;42.626;23.320;2022-10-19T13:46:33;93252.03;;;17.66;34.86
39789;BME280;25478;42.626;23.320;2022-10-19T14:12:07;93238.63;;;16.54;37.01
39789;BME280;25478;42.626;23.320;2022-10-19T14:14:42;93229.16;;;16.33;37.59
39789;BME280;25478;42.626;23.320;2022-10-19T14:17:16;93237.06;;;16.14;38.45
39789;BME280;25478;42.626;23.320;2022-10-19T14:19:49;93252.81;;;16.01;38.35
39789;BME280;25478;42.626;23.320;2022-10-19T14:22:26;93252.34;;;15.83;38.78
39789;BME280;25478;42.626;23.320;2022-10-19T14:25:18;93252.97;;;15.63;39.07
39789;BME280;25478;42.626;23.320;2022-10-19T14:27:51;93244.22;;;15.39;40.02
39789;BME280;25478;42.626;23.320;2022-10-19T14:30:21;93252.94;;;15.36;39.74
39789;BME280;25478;42.626;23.320;2022-10-19T14:32:47;93233.94;;;15.11;40.41
39789;BME280;25478;42.626;23.320;2022-10-19T14:35:27;93221.66;;;14.93;40.56
39789;BME280;25478;42.626;23.320;2022-10-19T14:37:53;93248.91;;;14.94;40.79
39789;BME280;25478;42.626;23.320;2022-10-19T14:42:45;93250.53;;;14.84;41.27
39789;BME280;25478;42.626;23.320;2022-10-19T14:45:21;93254.69;;;14.85;41.44
39789;BME280;25478;42.626;23.320;2022-10-19T14:48:00;93256.28;;;14.79;41.85
39789;BME280;25478;42.626;23.320;2022-10-19T14:53:52;93250.53;;;14.50;41.85
39789;BME280;25478;42.626;23.320;2022-10-19T14:55:54;93249.34;;;14.55;41.75
39789;BME280;25478;42.626;23.320;2022-10-19T14:58:24;93241.09;;;14.46;42.05
39789;BME280;25478;42.626;23.320;2022-10-19T15:00:52;93281.38;;;14.68;42.48
39789;BME280;25478;42.626;23.320;2022-10-19T15:03:24;93282.94;;;14.65;42.40
39789;BME280;25478;42.626;23.320;2022-10-19T15:05:54;93278.06;;;14.60;42.65
39789;BME280;25478;42.626;23.320;2022-10-19T15:08:36;93281.44;;;14.60;42.31
39789;BME280;25478;42.626;23.320;2022-10-19T15:11:18;93264.94;;;14.46;42.90
39789;BME280;25478;42.626;23.320;2022-10-19T15:13:46;93275.13;;;14.51;43.04
39789;BME280;25478;42.626;23.320;2022-10-19T15:21:41;93300.16;;;14.46;42.68
39789;BME280;25478;42.626;23.320;2022-10-19T15:24:25;93268.91;;;14.23;43.01
39789;BME280;25478;42.626;23.320;2022-10-19T15:26:52;93303.56;;;14.40;42.83
39789;BME280;25478;42.626;23.320;2022-10-19T15:29:28;93291.59;;;14.24;43.08
39789;BME280;25478;42.626;23.320;2022-10-19T15:31:54;93274.72;;;14.07;43.61
39789;BME280;25478;42.626;23.320;2022-10-19T15:34:29;93309.78;;;14.22;44.03
39789;BME280;25478;42.626;23.320;2022-10-19T15:36:57;93289.47;;;14.05;43.59
39789;BME280;25478;42.626;23.320;2022-10-19T15:39:28;93307.97;;;14.08;43.09
39789;BME280;25478;42.626;23.320;2022-10-19T15:41:55;93301.97;;;14.01;43.40
39789;BME280;25478;42.626;23.320;2022-10-19T15:44:42;93323.50;;;14.06;42.98
39789;BME280;25478;42.626;23.320;2022-10-19T15:52:24;93322.81;;;13.95;43.04
39789;BME280;25478;42.626;23.320;2022-10-19T15:54:55;93320.97;;;13.89;42.89
39789;BME280;25478;42.626;23.320;2022-10-19T15:59:52;93333.81;;;13.90;42.64
39789;BME280;25478;42.626;23.320;2022-10-19T16:02:18;93310.13;;;13.72;42.49
39789;BME280;25478;42.626;23.320;2022-10-19T16:04:43;93335.72;;;13.86;42.93
39789;BME280;25478;42.626;23.320;2022-10-19T16:07:14;93350.44;;;13.91;43.04
39789;BME280;25478;42.626;23.320;2022-10-19T16:09:41;93322.59;;;13.72;42.96
39789;BME280;25478;42.626;23.320;2022-10-19T16:12:09;93346.31;;;13.86;42.84
39789;BME280;25478;42.626;23.320;2022-10-19T16:14:35;93343.31;;;13.80;43.43
39789;BME280;25478;42.626;23.320;2022-10-19T16:17:00;93345.59;;;13.78;43.77
39789;BME280;25478;42.626;23.320;2022-10-19T16:19:26;93321.13;;;13.60;43.68
39789;BME280;25478;42.626;23.320;2022-10-19T16:21:51;93336.56;;;13.69;43.75
39789;BME280;25478;42.626;23.320;2022-10-19T16:24:17;93333.94;;;13.69;44.05
39789;BME280;25478;42.626;23.320;2022-10-19T16:26:42;93358.09;;;13.74;44.11
39789;BME280;25478;42.626;23.320;2022-10-19T16:29:08;93343.03;;;13.61;44.37
39789;BME280;25478;42.626;23.320;2022-10-19T16:31:33;93365.25;;;13.77;44.93
39789;BME280;25478;42.626;23.320;2022-10-19T16:33:59;93344.94;;;13.60;44.87
39789;BME280;25478;42.626;23.320;2022-10-19T16:36:24;93378.53;;;13.67;45.48
39789;BME280;25478;42.626;23.320;2022-10-19T16:38:50;93363.13;;;13.55;45.71
39789;BME280;25478;42.626;23.320;2022-10-19T16:41:16;93383.47;;;13.65;45.95
39789;BME280;25478;42.626;23.320;2022-10-19T16:43:41;93363.91;;;13.41;45.87
39789;BME280;25478;42.626;23.320;2022-10-19T16:46:07;93396.31;;;13.59;46.24
39789;BME280;25478;42.626;23.320;2022-10-19T16:48:33;93377.88;;;13.41;46.51
39789;BME280;25478;42.626;23.320;2022-10-19T16:53:30;93390.34;;;13.48;46.83
39789;BME280;25478;42.626;23.320;2022-10-19T16:56:08;93371.50;;;13.32;46.81
39789;BME280;25478;42.626;23.320;2022-10-19T16:58:35;93388.84;;;13.36;47.16
39789;BME280;25478;42.626;23.320;2022-10-19T17:01:15;93390.00;;;13.32;47.38
39789;BME280;25478;42.626;23.320;2022-10-19T17:03:42;93391.91;;;13.28;47.46
39789;BME280;25478;42.626;23.320;2022-10-19T17:06:08;93404.75;;;13.33;47.29
39789;BME280;25478;42.626;23.320;2022-10-19T17:08:35;93419.41;;;13.44;47.58
39789;BME280;25478;42.626;23.320;2022-10-19T17:11:20;93404.00;;;13.29;47.62
39789;BME280;25478;42.626;23.320;2022-10-19T17:13:48;93417.94;;;13.36;48.07
39789;BME280;25478;42.626;23.320;2022-10-19T17:16:15;93412.31;;;13.31;48.35
39789;BME280;25478;42.626;23.320;2022-10-19T17:18:42;93407.03;;;13.20;48.60
39789;BME280;25478;42.626;23.320;2022-10-19T17:21:13;93419.88;;;13.29;48.28
39789;BME280;25478;42.626;23.320;2022-10-19T17:23:39;93416.47;;;13.24;48.46
39789;BME280;25478;42.626;23.320;2022-10-19T17:26:06;93424.75;;;13.27;48.62
39789;BME280;25478;42.626;23.320;2022-10-19T17:28:32;93393.06;;;13.09;48.98
39789;BME280;25478;42.626;23.320;2022-10-19T17:31:03;93425.53;;;13.23;49.13
39789;BME280;25478;42.626;23.320;2022-10-19T17:33:29;93418.34;;;13.24;49.04
39789;BME280;25478;42.626;23.320;2022-10-19T17:35:54;93409.69;;;13.13;49.05
39789;BME280;25478;42.626;23.320;2022-10-19T17:38:20;93399.47;;;13.11;49.16
39789;BME280;25478;42.626;23.320;2022-10-19T17:40:45;93422.13;;;13.23;49.54
39789;BME280;25478;42.626;23.320;2022-10-19T17:43:11;93411.56;;;13.09;49.56
39789;BME280;25478;42.626;23.320;2022-10-19T17:45:37;93431.94;;;13.15;49.78
39789;BME280;25478;42.626;23.320;2022-10-19T17:48:02;93425.53;;;13.09;49.74
39789;BME280;25478;42.626;23.320;2022-10-19T17:50:29;93425.94;;;13.04;49.73
39789;BME280;25478;42.626;23.320;2022-10-19T17:52:54;93399.16;;;12.88;50.08
39789;BME280;25478;42.626;23.320;2022-10-19T17:55:20;93408.56;;;12.92;50.07
39789;BME280;25478;42.626;23.320;2022-10-19T17:57:45;93400.28;;;12.87;50.23
39789;BME280;25478;42.626;23.320;2022-10-19T18:00:11;93424.78;;;13.02;50.56
39789;BME280;25478;42.626;23.320;2022-10-19T18:02:42;93415.72;;;12.99;50.42
39789;BME280;25478;42.626;23.320;2022-10-19T18:05:08;93400.28;;;12.87;50.58
39789;BME280;25478;42.626;23.320;2022-10-19T18:07:34;93415.75;;;12.92;50.79
39789;BME280;25478;42.626;23.320;2022-10-19T18:09:59;93408.22;;;12.87;50.86
39789;BME280;25478;42.626;23.320;2022-10-19T18:12:25;93395.75;;;12.77;51.17
39789;BME280;25478;42.626;23.320;2022-10-19T18:14:51;93408.97;;;12.87;51.10
39789;BME280;25478;42.626;23.320;2022-10-19T18:17:16;93393.50;;;12.75;51.31
39789;BME280;25478;42.626;23.320;2022-10-19T18:19:42;93379.53;;;12.64;51.20
39789;BME280;25478;42.626;23.320;2022-10-19T18:22:07;93407.44;;;12.83;51.25
39789;BME280;25478;42.626;23.320;2022-10-19T18:24:33;93391.59;;;12.76;51.06
39789;BME280;25478;42.626;23.320;2022-10-19T18:26:58;93398.78;;;12.75;51.21
39789;BME280;25478;42.626;23.320;2022-10-19T18:29:25;93407.81;;;12.88;51.08
39789;BME280;25478;42.626;23.320;2022-10-19T18:31:52;93411.22;;;12.85;51.12
39789;BME280;25478;42.626;23.320;2022-10-19T18:34:26;93401.78;;;12.81;50.85
39789;BME280;25478;42.626;23.320;2022-10-19T18:36:53;93421.38;;;12.94;50.80
39789;BME280;25478;42.626;23.320;2022-10-19T18:39:19;93400.28;;;12.80;50.78
39789;BME280;25478;42.626;23.320;2022-10-19T18:41:45;93407.47;;;12.79;50.97
39789;BME280;25478;42.626;23.320;2022-10-19T18:44:12;93421.38;;;12.94;50.58
39789;BME280;25478;42.626;23.320;2022-10-19T18:46:38;93412.72;;;12.83;50.46
39789;BME280;25478;42.626;23.320;2022-10-19T18:49:06;93394.25;;;12.76;50.66
39789;BME280;25478;42.626;23.320;2022-10-19T18:51:32;93396.16;;;12.72;51.01
39789;BME280;25478;42.626;23.320;2022-10-19T18:53:58;93403.31;;;12.75;50.83
39789;BME280;25478;42.626;23.320;2022-10-19T18:56:24;93407.44;;;12.76;50.79
39789;BME280;25478;42.626;23.320;2022-10-19T18:58:50;93414.63;;;12.79;51.29
39789;BME280;25478;42.626;23.320;2022-10-19T19:03:44;93427.06;;;12.82;51.17
39789;BME280;25478;42.626;23.320;2022-10-19T19:06:13;93436.88;;;12.81;51.25
39789;BME280;25478;42.626;23.320;2022-10-19T19:08:39;93412.75;;;12.65;51.12
39789;BME280;25478;42.626;23.320;2022-10-19T19:11:13;93443.69;;;12.79;51.14
39789;BME280;25478;42.626;23.320;2022-10-19T19:13:39;93461.41;;;12.75;51.53
39789;BME280;25478;42.626;23.320;2022-10-19T19:16:06;93464.81;;;12.79;51.35
39789;BME280;25478;42.626;23.320;2022-10-19T19:18:32;93456.91;;;12.79;51.92
39789;BME280;25478;42.626;23.320;2022-10-19T19:21:02;93429.34;;;12.55;51.90
39789;BME280;25478;42.626;23.320;2022-10-19T19:23:28;93464.44;;;12.77;52.08
39789;BME280;25478;42.626;23.320;2022-10-19T19:25:55;93464.06;;;12.71;52.14
39789;BME280;25478;42.626;23.320;2022-10-19T19:28:21;93451.59;;;12.57;52.43
39789;BME280;25478;42.626;23.320;2022-10-19T19:30:47;93437.63;;;12.50;53.00
39789;BME280;25478;42.626;23.320;2022-10-19T19:33:13;93438.00;;;12.48;53.14
39789;BME280;25478;42.626;23.320;2022-10-19T19:35:46;93465.19;;;12.66;53.43
39789;BME280;25478;42.626;23.320;2022-10-19T19:38:13;93447.81;;;12.51;53.55
39789;BME280;25478;42.626;23.320;2022-10-19T19:40:40;93474.25;;;12.62;53.52
39789;BME280;25478;42.626;23.320;2022-10-19T19:43:07;93470.47;;;12.59;53.91
39789;BME280;25478;42.626;23.320;2022-10-19T19:45:33;93464.03;;;12.50;53.92
39789;BME280;25478;42.626;23.320;2022-10-19T19:47:59;93484.06;;;12.61;54.50
39789;BME280;25478;42.626;23.320;2022-10-19T19:50:25;93445.94;;;12.37;54.86
39789;BME280;25478;42.626;23.320;2022-10-19T19:52:51;93461.00;;;12.44;55.54
39789;BME280;25478;42.626;23.320;2022-10-19T19:55:16;93472.34;;;12.48;55.79
39789;BME280;25478;42.626;23.320;2022-10-19T19:57:42;93465.53;;;12.36;56.85
39789;BME280;25478;42.626;23.320;2022-10-19T20:00:08;93493.47;;;12.52;57.49
39789;BME280;25478;42.626;23.320;2022-10-19T20:02:36;93475.72;;;12.34;58.01
39789;BME280;25478;42.626;23.320;2022-10-19T20:05:04;93499.09;;;12.43;58.38
39789;BME280;25478;42.626;23.320;2022-10-19T20:07:29;93479.50;;;12.37;58.77
39789;BME280;25478;42.626;23.320;2022-10-19T20:09:55;93465.50;;;12.22;59.41
39789;BME280;25478;42.626;23.320;2022-10-19T20:12:21;93498.72;;;12.41;59.72
39789;BME280;25478;42.626;23.320;2022-10-19T20:14:46;93476.06;;;12.26;59.97
39789;BME280;25478;42.626;23.320;2022-10-19T20:17:12;93487.38;;;12.26;60.41
39789;BME280;25478;42.626;23.320;2022-10-19T20:19:38;93513.06;;;12.44;60.98
39789;BME280;25478;42.626;23.320;2022-10-19T20:22:03;93486.63;;;12.26;60.98
39789;BME280;25478;42.626;23.320;2022-10-19T20:24:33;93496.06;;;12.34;61.52
39789;BME280;25478;42.626;23.320;2022-10-19T20:26:59;93493.81;;;12.32;61.89
39789;BME280;25478;42.626;23.320;2022-10-19T20:29:24;93504.75;;;12.42;61.99
39789;BME280;25478;42.626;23.320;2022-10-19T20:31:50;93511.56;;;12.46;62.03
39789;BME280;25478;42.626;23.320;2022-10-19T20:34:16;93494.22;;;12.38;62.62
39789;BME280;25478;42.626;23.320;2022-10-19T20:36:41;93497.63;;;12.53;62.75
39789;BME280;25478;42.626;23.320;2022-10-19T20:39:08;93500.28;;;12.63;62.56
39789;BME280;25478;42.626;23.320;2022-10-19T20:41:33;93495.38;;;12.65;62.80
39789;BME280;25478;42.626;23.320;2022-10-19T20:43:59;93522.94;;;12.79;63.21
39789;BME280;25478;42.626;23.320;2022-10-19T20:46:27;93513.91;;;12.87;63.36
39789;BME280;25478;42.626;23.320;2022-10-19T20:48:55;93518.41;;;12.90;63.50
39789;BME280;25478;42.626;23.320;2022-10-19T20:51:22;93519.16;;;12.90;64.10
39789;BME280;25478;42.626;23.320;2022-10-19T20:53:51;93516.16;;;12.92;64.50
39789;BME280;25478;42.626;23.320;2022-10-19T20:56:19;93504.81;;;12.84;64.59
39789;BME280;25478;42.626;23.320;2022-10-19T20:58:59;93520.31;;;12.96;64.89
39789;BME280;25478;42.626;23.320;2022-10-19T21:01:27;93520.69;;;12.99;65.81
39789;BME280;25478;42.626;23.320;2022-10-19T21:03:55;93510.88;;;12.95;65.97
39789;BME280;25478;42.626;23.320;2022-10-19T21:06:23;93518.03;;;13.06;66.73
39789;BME280;25478;42.626;23.320;2022-10-19T21:08:49;93526.72;;;13.06;66.84
39789;BME280;25478;42.626;23.320;2022-10-19T21:11:32;93521.06;;;13.08;67.79
39789;BME280;25478;42.626;23.320;2022-10-19T21:14:04;93522.19;;;13.07;68.20
39789;BME280;25478;42.626;23.320;2022-10-19T21:16:30;93512.00;;;12.98;68.84
39789;BME280;25478;42.626;23.320;2022-10-19T21:18:59;93511.25;;;12.98;69.16
39789;BME280;25478;42.626;23.320;2022-10-19T21:21:39;93526.34;;;13.04;69.36
39789;BME280;25478;42.626;23.320;2022-10-19T21:24:17;93509.34;;;12.94;68.83
39789;BME280;25478;42.626;23.320;2022-10-19T21:26:43;93516.53;;;12.94;69.12
39789;BME280;25478;42.626;23.320;2022-10-19T21:29:10;93537.28;;;12.99;69.31
39789;BME280;25478;42.626;23.320;2022-10-19T21:31:39;93520.28;;;12.93;69.12
39789;BME280;25478;42.626;23.320;2022-10-19T21:34:11;93521.41;;;12.85;68.85
39789;BME280;25478;42.626;23.320;2022-10-19T21:36:37;93512.38;;;12.79;69.21
39789;BME280;25478;42.626;23.320;2022-10-19T21:39:03;93537.66;;;12.94;69.07
39789;BME280;25478;42.626;23.320;2022-10-19T21:41:28;93524.81;;;12.85;69.42
39789;BME280;25478;42.626;23.320;2022-10-19T21:43:55;93525.56;;;12.86;69.37
39789;BME280;25478;42.626;23.320;2022-10-19T21:46:22;93538.41;;;12.91;69.24
39789;BME280;25478;42.626;23.320;2022-10-19T21:48:48;93535.41;;;12.78;69.61
39789;BME280;25478;42.626;23.320;2022-10-19T21:54:10;93548.63;;;12.89;70.31
39789;BME280;25478;42.626;23.320;2022-10-19T21:56:36;93542.19;;;12.90;70.48
39789;BME280;25478;42.626;23.320;2022-10-19T21:59:02;93541.06;;;12.87;71.05
39789;BME280;25478;42.626;23.320;2022-10-19T22:01:29;93536.53;;;12.88;71.63
39789;BME280;25478;42.626;23.320;2022-10-19T22:03:56;93525.19;;;12.70;71.84
39789;BME280;25478;42.626;23.320;2022-10-19T22:06:22;93551.25;;;12.85;72.44
39789;BME280;25478;42.626;23.320;2022-10-19T22:08:48;93543.34;;;12.78;72.48
39789;BME280;25478;42.626;23.320;2022-10-19T22:11:14;93542.53;;;12.78;73.01
39789;BME280;25478;42.626;23.320;2022-10-19T22:13:40;93558.41;;;12.85;73.49
39789;BME280;25478;42.626;23.320;2022-10-19T22:16:09;93545.97;;;12.82;73.78
39789;BME280;25478;42.626;23.320;2022-10-19T22:18:35;93537.66;;;12.73;73.97
39789;BME280;25478;42.626;23.320;2022-10-19T22:21:12;93529.34;;;12.67;73.87
39789;BME280;25478;42.626;23.320;2022-10-19T22:23:38;93522.91;;;12.64;73.94
39789;BME280;25478;42.626;23.320;2022-10-19T22:26:22;93539.91;;;12.78;73.97
39789;BME280;25478;42.626;23.320;2022-10-19T22:28:48;93534.22;;;12.68;74.14
39789;BME280;25478;42.626;23.320;2022-10-19T22:31:13;93547.81;;;12.78;74.61
39789;BME280;25478;42.626;23.320;2022-10-19T22:33:39;93548.22;;;12.76;74.11
39789;BME280;25478;42.626;23.320;2022-10-19T22:36:07;93547.06;;;12.77;74.36
39789;BME280;25478;42.626;23.320;2022-10-19T22:38:33;93553.50;;;12.76;74.26
39789;BME280;25478;42.626;23.320;2022-10-19T22:40:59;93553.13;;;12.78;74.21
39789;BME280;25478;42.626;23.320;2022-10-19T22:43:24;93540.28;;;12.73;74.00
39789;BME280;25478;42.626;23.320;2022-10-19T22:45:50;93547.50;;;12.86;74.09
39789;BME280;25478;42.626;23.320;2022-10-19T22:48:16;93558.06;;;12.90;73.95
39789;BME280;25478;42.626;23.320;2022-10-19T22:50:43;93520.66;;;12.63;73.78
39789;BME280;25478;42.626;23.320;2022-10-19T22:53:09;93534.22;;;12.68;74.17
39789;BME280;25478;42.626;23.320;2022-10-19T22:55:35;93565.19;;;12.86;73.71
39789;BME280;25478;42.626;23.320;2022-10-19T22:58:00;93562.97;;;12.88;74.08
39789;BME280;25478;42.626;23.320;2022-10-19T23:00:26;93557.31;;;12.89;73.60
39789;BME280;25478;42.626;23.320;2022-10-19T23:02:52;93565.97;;;12.90;74.03
39789;BME280;25478;42.626;23.320;2022-10-19T23:05:17;93536.88;;;12.68;73.81
39789;BME280;25478;42.626;23.320;2022-10-19T23:07:43;93553.50;;;12.80;74.19
39789;BME280;25478;42.626;23.320;2022-10-19T23:10:08;93550.88;;;12.80;73.97
39789;BME280;25478;42.626;23.320;2022-10-19T23:12:34;93540.28;;;12.73;74.49
39789;BME280;25478;42.626;23.320;2022-10-19T23:14:59;93565.59;;;12.81;74.55
39789;BME280;25478;42.626;23.320;2022-10-19T23:17:25;93558.78;;;12.73;74.60
39789;BME280;25478;42.626;23.320;2022-10-19T23:19:50;93558.78;;;12.76;74.80
39789;BME280;25478;42.626;23.320;2022-10-19T23:22:16;93561.44;;;12.83;74.97